sensor_id;sensor_type;location;lat;lon;timestamp;pressure;altitude;pressure_sealevel;temperature;humidity
53900;BME280;40509;32.858;-116.858;2023-05-01T00:02:23;97698.88;;;21.93;48.78
53900;BME280;40509;32.858;-116.858;2023-05-01T00:04:50;97707.19;;;21.72;49.20
53900;BME280;40509;32.858;-116.858;2023-05-01T00:07:17;97701.91;;;21.64;49.62
53900;BME280;40509;32.858;-116.858;2023-05-01T00:09:45;97695.38;;;21.68;49.24
53900;BME280;40509;32.858;-116.858;2023-05-01T00:12:12;97696.97;;;21.69;49.49
53900;BME280;40509;32.858;-116.858;2023-05-01T00:14:39;97692.41;;;21.71;49.43
53900;BME280;40509;32.858;-116.858;2023-05-01T00:17:07;97696.78;;;21.62;49.72
53900;BME280;40509;32.858;-116.858;2023-05-01T00:19:35;97694.84;;;21.64;49.53
53900;BME280;40509;32.858;-116.858;2023-05-01T00:22:02;97703.13;;;21.51;49.95
53900;BME280;40509;32.858;-116.858;2023-05-01T00:24:29;97697.19;;;21.49;49.87
53900;BME280;40509;32.858;-116.858;2023-05-01T00:26:57;97693.19;;;21.63;49.62
53900;BME280;40509;32.858;-116.858;2023-05-01T00:29:24;97689.25;;;21.67;49.60
53900;BME280;40509;32.858;-116.858;2023-05-01T00:31:51;97689.59;;;21.64;49.70
53900;BME280;40509;32.858;-116.858;2023-05-01T00:34:20;97684.88;;;21.50;49.93
53900;BME280;40509;32.858;-116.858;2023-05-01T00:36:47;97683.09;;;21.50;49.90
53900;BME280;40509;32.858;-116.858;2023-05-01T00:39:14;97689.00;;;21.52;49.91
53900;BME280;40509;32.858;-116.858;2023-05-01T00:41:42;97686.53;;;21.51;49.82
53900;BME280;40509;32.858;-116.858;2023-05-01T00:44:09;97688.06;;;21.53;49.68
53900;BME280;40509;32.858;-116.858;2023-05-01T00:46:36;97681.53;;;21.31;50.33
53900;BME280;40509;32.858;-116.858;2023-05-01T00:49:03;97688.00;;;21.45;50.07
53900;BME280;40509;32.858;-116.858;2023-05-01T00:51:31;97688.00;;;21.45;50.20
53900;BME280;40509;32.858;-116.858;2023-05-01T00:53:59;97686.66;;;21.41;50.13
53900;BME280;40509;32.858;-116.858;2023-05-01T00:56:28;97680.13;;;21.45;50.24
53900;BME280;40509;32.858;-116.858;2023-05-01T00:58:55;97681.53;;;21.31;50.40
53900;BME280;40509;32.858;-116.858;2023-05-01T01:01:23;97682.00;;;21.53;49.97
53900;BME280;40509;32.858;-116.858;2023-05-01T01:03:50;97679.78;;;21.48;50.07
53900;BME280;40509;32.858;-116.858;2023-05-01T01:06:32;97683.09;;;21.50;50.07
53900;BME280;40509;32.858;-116.858;2023-05-01T01:09:37;97682.94;;;21.52;49.85
53900;BME280;40509;32.858;-116.858;2023-05-01T01:15:20;97678.19;;;21.21;50.47
53900;BME280;40509;32.858;-116.858;2023-05-01T01:18:18;97678.38;;;21.28;50.33
53900;BME280;40509;32.858;-116.858;2023-05-01T01:21:00;97682.03;;;21.09;50.62
53900;BME280;40509;32.858;-116.858;2023-05-01T01:26:59;97685.84;;;21.14;50.58
53900;BME280;40509;32.858;-116.858;2023-05-01T01:35:19;97686.47;;;21.08;50.75
53900;BME280;40509;32.858;-116.858;2023-05-01T01:38:10;97678.59;;;21.08;50.62
53900;BME280;40509;32.858;-116.858;2023-05-01T01:40:57;97673.00;;;21.03;50.79
53900;BME280;40509;32.858;-116.858;2023-05-01T01:43:28;97670.03;;;21.06;50.68
53900;BME280;40509;32.858;-116.858;2023-05-01T01:46:01;97675.41;;;20.96;50.90
53900;BME280;40509;32.858;-116.858;2023-05-01T01:48:36;97663.63;;;21.00;50.88
53900;BME280;40509;32.858;-116.858;2023-05-01T01:51:09;97668.28;;;20.88;51.05
53900;BME280;40509;32.858;-116.858;2023-05-01T01:53:40;97673.03;;;20.85;51.30
53900;BME280;40509;32.858;-116.858;2023-05-01T01:56:08;97669.81;;;20.73;51.68
53900;BME280;40509;32.858;-116.858;2023-05-01T01:58:38;97678.47;;;20.92;51.32
53900;BME280;40509;32.858;-116.858;2023-05-01T02:01:07;97678.66;;;20.72;51.79
53900;BME280;40509;32.858;-116.858;2023-05-01T02:03:37;97679.69;;;20.61;51.93
53900;BME280;40509;32.858;-116.858;2023-05-01T02:06:05;97680.44;;;20.89;51.36
53900;BME280;40509;32.858;-116.858;2023-05-01T02:08:35;97693.28;;;20.75;51.71
53900;BME280;40509;32.858;-116.858;2023-05-01T02:11:04;97692.31;;;20.76;51.62
53900;BME280;40509;32.858;-116.858;2023-05-01T02:13:33;97689.19;;;20.44;52.60
53900;BME280;40509;32.858;-116.858;2023-05-01T02:16:02;97696.78;;;20.83;51.67
53900;BME280;40509;32.858;-116.858;2023-05-01T02:18:32;97700.25;;;21.10;51.02
53900;BME280;40509;32.858;-116.858;2023-05-01T02:21:02;97698.84;;;21.24;50.62
53900;BME280;40509;32.858;-116.858;2023-05-01T02:23:36;97696.47;;;21.39;50.27
53900;BME280;40509;32.858;-116.858;2023-05-01T02:26:05;97693.41;;;21.44;50.28
53900;BME280;40509;32.858;-116.858;2023-05-01T02:28:39;97699.66;;;21.51;49.96
53900;BME280;40509;32.858;-116.858;2023-05-01T02:31:08;97697.59;;;21.54;49.88
53900;BME280;40509;32.858;-116.858;2023-05-01T02:33:35;97698.25;;;21.56;49.67
53900;BME280;40509;32.858;-116.858;2023-05-01T02:36:03;97693.16;;;21.55;49.78
53900;BME280;40509;32.858;-116.858;2023-05-01T02:38:31;97685.28;;;21.55;49.76
53900;BME280;40509;32.858;-116.858;2023-05-01T02:40:59;97697.09;;;21.59;49.76
53900;BME280;40509;32.858;-116.858;2023-05-01T02:43:28;97694.31;;;21.61;49.69
53900;BME280;40509;32.858;-116.858;2023-05-01T02:45:58;97690.72;;;21.62;49.55
53900;BME280;40509;32.858;-116.858;2023-05-01T02:48:29;97689.75;;;21.63;49.85
53900;BME280;40509;32.858;-116.858;2023-05-01T02:50:59;97693.34;;;21.62;49.85
53900;BME280;40509;32.858;-116.858;2023-05-01T02:53:27;97693.53;;;21.68;49.90
53900;BME280;40509;32.858;-116.858;2023-05-01T02:56:03;97697.81;;;21.69;49.88
53900;BME280;40509;32.858;-116.858;2023-05-01T02:58:31;97697.16;;;21.67;49.79
53900;BME280;40509;32.858;-116.858;2023-05-01T03:01:00;97690.44;;;21.73;49.87
53900;BME280;40509;32.858;-116.858;2023-05-01T03:03:27;97702.75;;;21.72;49.97
53900;BME280;40509;32.858;-116.858;2023-05-01T03:05:54;97703.56;;;21.73;50.27
53900;BME280;40509;32.858;-116.858;2023-05-01T03:08:23;97699.97;;;21.74;50.65
53900;BME280;40509;32.858;-116.858;2023-05-01T03:10:50;97701.81;;;21.82;50.68
53900;BME280;40509;32.858;-116.858;2023-05-01T03:13:17;97693.25;;;21.80;50.47
53900;BME280;40509;32.858;-116.858;2023-05-01T03:15:45;97692.75;;;21.76;50.83
53900;BME280;40509;32.858;-116.858;2023-05-01T03:18:12;97690.94;;;21.77;51.39
53900;BME280;40509;32.858;-116.858;2023-05-01T03:20:40;97686.03;;;21.82;51.72
53900;BME280;40509;32.858;-116.858;2023-05-01T03:23:16;97690.50;;;21.81;51.63
53900;BME280;40509;32.858;-116.858;2023-05-01T03:25:43;97692.13;;;21.82;52.16
53900;BME280;40509;32.858;-116.858;2023-05-01T03:28:11;97696.75;;;21.88;52.05
53900;BME280;40509;32.858;-116.858;2023-05-01T03:30:38;97695.59;;;21.91;51.46
53900;BME280;40509;32.858;-116.858;2023-05-01T03:33:05;97700.34;;;21.87;51.36
53900;BME280;40509;32.858;-116.858;2023-05-01T03:35:33;97692.31;;;21.89;51.71
53900;BME280;40509;32.858;-116.858;2023-05-01T03:38:01;97703.66;;;21.89;51.84
53900;BME280;40509;32.858;-116.858;2023-05-01T03:40:46;97697.88;;;21.86;51.95
53900;BME280;40509;32.858;-116.858;2023-05-01T03:43:32;97708.41;;;21.86;52.37
53900;BME280;40509;32.858;-116.858;2023-05-01T03:46:04;97702.97;;;21.87;52.23
53900;BME280;40509;32.858;-116.858;2023-05-01T03:48:32;97698.06;;;21.84;52.25
53900;BME280;40509;32.858;-116.858;2023-05-01T03:51:01;97708.06;;;21.89;51.84
53900;BME280;40509;32.858;-116.858;2023-05-01T03:53:28;97707.91;;;21.90;51.44
53900;BME280;40509;32.858;-116.858;2023-05-01T03:55:56;97707.09;;;21.90;51.30
53900;BME280;40509;32.858;-116.858;2023-05-01T03:58:24;97703.94;;;21.86;51.56
53900;BME280;40509;32.858;-116.858;2023-05-01T04:00:53;97707.59;;;21.85;51.60
53900;BME280;40509;32.858;-116.858;2023-05-01T04:03:23;97714.81;;;21.92;51.70
53900;BME280;40509;32.858;-116.858;2023-05-01T04:05:52;97718.13;;;21.94;51.37
53900;BME280;40509;32.858;-116.858;2023-05-01T04:08:20;97724.34;;;21.93;51.49
53900;BME280;40509;32.858;-116.858;2023-05-01T04:10:48;97722.88;;;21.90;51.79
53900;BME280;40509;32.858;-116.858;2023-05-01T04:13:15;97732.56;;;21.89;51.54
53900;BME280;40509;32.858;-116.858;2023-05-01T04:15:45;97732.56;;;21.89;51.84
53900;BME280;40509;32.858;-116.858;2023-05-01T04:18:13;97728.13;;;21.90;51.68
53900;BME280;40509;32.858;-116.858;2023-05-01T04:20:40;97721.03;;;21.90;51.86
53900;BME280;40509;32.858;-116.858;2023-05-01T04:23:07;97720.06;;;21.92;51.59
53900;BME280;40509;32.858;-116.858;2023-05-01T04:25:36;97717.59;;;21.90;51.58
53900;BME280;40509;32.858;-116.858;2023-05-01T04:28:12;97721.03;;;21.90;51.78
53900;BME280;40509;32.858;-116.858;2023-05-01T04:30:40;97716.63;;;21.91;51.55
53900;BME280;40509;32.858;-116.858;2023-05-01T04:33:08;97712.06;;;22.01;51.50
53900;BME280;40509;32.858;-116.858;2023-05-01T04:35:39;97716.81;;;21.98;51.60
53900;BME280;40509;32.858;-116.858;2023-05-01T04:38:08;97714.16;;;21.89;51.73
53900;BME280;40509;32.858;-116.858;2023-05-01T04:40:37;97709.25;;;21.95;51.13
53900;BME280;40509;32.858;-116.858;2023-05-01T04:43:05;97712.88;;;21.94;51.37
53900;BME280;40509;32.858;-116.858;2023-05-01T04:45:32;97715.50;;;21.94;51.37
53900;BME280;40509;32.858;-116.858;2023-05-01T04:48:00;97720.75;;;21.94;51.29
53900;BME280;40509;32.858;-116.858;2023-05-01T04:50:28;97717.13;;;21.95;51.45
53900;BME280;40509;32.858;-116.858;2023-05-01T04:52:55;97713.84;;;21.93;51.44
53900;BME280;40509;32.858;-116.858;2023-05-01T04:55:23;97716.31;;;21.94;51.25
53900;BME280;40509;32.858;-116.858;2023-05-01T04:58:03;97721.88;;;21.91;51.39
53900;BME280;40509;32.858;-116.858;2023-05-01T05:00:33;97716.47;;;21.93;51.03
53900;BME280;40509;32.858;-116.858;2023-05-01T05:03:02;97719.75;;;21.95;51.16
53900;BME280;40509;32.858;-116.858;2023-05-01T05:05:29;97724.34;;;21.93;51.24
53900;BME280;40509;32.858;-116.858;2023-05-01T05:07:56;97728.47;;;21.95;51.15
53900;BME280;40509;32.858;-116.858;2023-05-01T05:10:28;97731.91;;;21.96;50.92
53900;BME280;40509;32.858;-116.858;2023-05-01T05:13:15;97727.97;;;21.92;51.03
53900;BME280;40509;32.858;-116.858;2023-05-01T05:15:43;97721.88;;;21.91;50.98
53900;BME280;40509;32.858;-116.858;2023-05-01T05:18:12;97725.50;;;21.90;50.96
53900;BME280;40509;32.858;-116.858;2023-05-01T05:20:40;97726.63;;;21.87;51.06
53900;BME280;40509;32.858;-116.858;2023-05-01T05:23:08;97725.50;;;21.90;50.98
53900;BME280;40509;32.858;-116.858;2023-05-01T05:25:35;97725.66;;;21.88;51.00
53900;BME280;40509;32.858;-116.858;2023-05-01T05:28:03;97731.56;;;21.90;50.94
53900;BME280;40509;32.858;-116.858;2023-05-01T05:30:31;97724.16;;;21.86;51.01
53900;BME280;40509;32.858;-116.858;2023-05-01T05:32:59;97720.41;;;21.88;50.96
53900;BME280;40509;32.858;-116.858;2023-05-01T05:35:27;97714.31;;;21.88;50.78
53900;BME280;40509;32.858;-116.858;2023-05-01T05:37:54;97708.91;;;21.89;50.64
53900;BME280;40509;32.858;-116.858;2023-05-01T05:40:22;97710.06;;;21.87;50.82
53900;BME280;40509;32.858;-116.858;2023-05-01T05:42:57;97707.25;;;21.88;50.81
53900;BME280;40509;32.858;-116.858;2023-05-01T05:45:26;97715.78;;;21.90;50.20
53900;BME280;40509;32.858;-116.858;2023-05-01T05:47:55;97709.03;;;21.88;50.56
53900;BME280;40509;32.858;-116.858;2023-05-01T05:50:25;97712.16;;;21.83;50.78
53900;BME280;40509;32.858;-116.858;2023-05-01T05:52:53;97703.31;;;21.84;50.65
53900;BME280;40509;32.858;-116.858;2023-05-01T05:55:22;97704.78;;;21.87;50.31
53900;BME280;40509;32.858;-116.858;2023-05-01T05:58:03;97707.25;;;21.88;50.44
53900;BME280;40509;32.858;-116.858;2023-05-01T06:00:31;97704.28;;;21.83;50.70
53900;BME280;40509;32.858;-116.858;2023-05-01T06:03:03;97708.72;;;21.83;50.61
53900;BME280;40509;32.858;-116.858;2023-05-01T06:05:31;97711.19;;;21.84;50.44
53900;BME280;40509;32.858;-116.858;2023-05-01T06:07:59;97705.09;;;21.84;50.63
53900;BME280;40509;32.858;-116.858;2023-05-01T06:10:26;97705.09;;;21.84;50.58
53900;BME280;40509;32.858;-116.858;2023-05-01T06:12:53;97700.00;;;21.82;50.57
53900;BME280;40509;32.858;-116.858;2023-05-01T06:15:21;97713.66;;;21.86;50.43
53900;BME280;40509;32.858;-116.858;2023-05-01T06:17:54;97709.22;;;21.86;50.37
53900;BME280;40509;32.858;-116.858;2023-05-01T06:20:23;97711.19;;;21.84;50.51
53900;BME280;40509;32.858;-116.858;2023-05-01T06:22:50;97704.75;;;21.79;50.50
53900;BME280;40509;32.858;-116.858;2023-05-01T06:25:23;97709.53;;;21.83;50.30
53900;BME280;40509;32.858;-116.858;2023-05-01T06:27:50;97706.38;;;21.80;50.48
53900;BME280;40509;32.858;-116.858;2023-05-01T06:30:20;97709.69;;;21.82;50.35
53900;BME280;40509;32.858;-116.858;2023-05-01T06:32:48;97706.91;;;21.83;50.20
53900;BME280;40509;32.858;-116.858;2023-05-01T06:35:16;97697.56;;;21.89;50.14
53900;BME280;40509;32.858;-116.858;2023-05-01T06:37:44;97699.03;;;21.83;50.26
53900;BME280;40509;32.858;-116.858;2023-05-01T06:40:12;97694.56;;;21.84;50.18
53900;BME280;40509;32.858;-116.858;2023-05-01T06:42:39;97693.59;;;21.85;49.85
53900;BME280;40509;32.858;-116.858;2023-05-01T06:45:07;97689.03;;;21.87;50.03
53900;BME280;40509;32.858;-116.858;2023-05-01T06:47:35;97687.88;;;21.81;49.92
53900;BME280;40509;32.858;-116.858;2023-05-01T06:50:03;97685.25;;;21.81;49.77
53900;BME280;40509;32.858;-116.858;2023-05-01T06:52:33;97694.09;;;21.80;49.90
53900;BME280;40509;32.858;-116.858;2023-05-01T06:55:00;97695.22;;;21.78;49.98
53900;BME280;40509;32.858;-116.858;2023-05-01T06:57:27;97701.13;;;21.80;50.02
53900;BME280;40509;32.858;-116.858;2023-05-01T06:59:55;97699.69;;;21.85;49.89
53900;BME280;40509;32.858;-116.858;2023-05-01T07:02:22;97702.94;;;21.79;49.94
53900;BME280;40509;32.858;-116.858;2023-05-01T07:04:49;97696.41;;;21.83;49.65
53900;BME280;40509;32.858;-116.858;2023-05-01T07:07:19;97695.88;;;21.80;49.93
53900;BME280;40509;32.858;-116.858;2023-05-01T07:09:47;97691.31;;;21.82;49.97
53900;BME280;40509;32.858;-116.858;2023-05-01T07:12:15;97679.97;;;21.81;49.92
53900;BME280;40509;32.858;-116.858;2023-05-01T07:14:42;97674.03;;;21.71;49.95
53900;BME280;40509;32.858;-116.858;2023-05-01T07:17:09;97682.25;;;21.76;49.60
53900;BME280;40509;32.858;-116.858;2023-05-01T07:19:36;97686.03;;;21.73;50.08
53900;BME280;40509;32.858;-116.858;2023-05-01T07:22:04;97677.63;;;21.70;49.97
53900;BME280;40509;32.858;-116.858;2023-05-01T07:24:31;97675.69;;;21.72;49.79
53900;BME280;40509;32.858;-116.858;2023-05-01T07:26:58;97680.75;;;21.65;49.98
53900;BME280;40509;32.858;-116.858;2023-05-01T07:29:26;97679.09;;;21.64;50.11
53900;BME280;40509;32.858;-116.858;2023-05-01T07:31:53;97672.69;;;21.67;49.91
53900;BME280;40509;32.858;-116.858;2023-05-01T07:34:20;97674.03;;;21.71;49.79
53900;BME280;40509;32.858;-116.858;2023-05-01T07:36:47;97675.66;;;21.64;49.83
53900;BME280;40509;32.858;-116.858;2023-05-01T07:39:14;97673.81;;;21.64;49.76
53900;BME280;40509;32.858;-116.858;2023-05-01T07:41:43;97666.91;;;21.63;49.76
53900;BME280;40509;32.858;-116.858;2023-05-01T07:44:11;97666.75;;;21.65;49.79
53900;BME280;40509;32.858;-116.858;2023-05-01T07:46:38;97671.03;;;21.66;49.78
53900;BME280;40509;32.858;-116.858;2023-05-01T07:49:05;97665.78;;;21.66;49.52
53900;BME280;40509;32.858;-116.858;2023-05-01T07:51:33;97662.50;;;21.64;49.56
53900;BME280;40509;32.858;-116.858;2023-05-01T07:54:00;97659.22;;;21.62;49.74
53900;BME280;40509;32.858;-116.858;2023-05-01T07:56:33;97661.19;;;21.60;49.71
53900;BME280;40509;32.858;-116.858;2023-05-01T07:59:00;97667.59;;;21.65;49.61
53900;BME280;40509;32.858;-116.858;2023-05-01T08:01:27;97655.59;;;21.63;49.81
53900;BME280;40509;32.858;-116.858;2023-05-01T08:03:55;97653.63;;;21.65;49.58
53900;BME280;40509;32.858;-116.858;2023-05-01T08:06:23;97647.88;;;21.61;49.55
53900;BME280;40509;32.858;-116.858;2023-05-01T08:08:50;97648.34;;;21.56;49.74
53900;BME280;40509;32.858;-116.858;2023-05-01T08:11:17;97634.06;;;21.59;49.62
53900;BME280;40509;32.858;-116.858;2023-05-01T08:13:44;97642.13;;;21.58;49.72
53900;BME280;40509;32.858;-116.858;2023-05-01T08:16:11;97634.41;;;21.56;49.76
53900;BME280;40509;32.858;-116.858;2023-05-01T08:18:39;97636.88;;;21.58;49.70
53900;BME280;40509;32.858;-116.858;2023-05-01T08:21:06;97638.84;;;21.55;49.68
53900;BME280;40509;32.858;-116.858;2023-05-01T08:23:33;97633.25;;;21.59;49.40
53900;BME280;40509;32.858;-116.858;2023-05-01T08:26:01;97633.25;;;21.59;49.44
53900;BME280;40509;32.858;-116.858;2023-05-01T08:28:28;97628.34;;;21.55;49.51
53900;BME280;40509;32.858;-116.858;2023-05-01T08:30:55;97624.06;;;21.54;49.52
53900;BME280;40509;32.858;-116.858;2023-05-01T08:33:22;97625.03;;;21.53;49.57
53900;BME280;40509;32.858;-116.858;2023-05-01T08:35:50;97625.84;;;21.54;49.48
53900;BME280;40509;32.858;-116.858;2023-05-01T08:38:18;97620.88;;;21.51;49.45
53900;BME280;40509;32.858;-116.858;2023-05-01T08:40:51;97619.91;;;21.52;49.46
53900;BME280;40509;32.858;-116.858;2023-05-01T08:43:19;97617.44;;;21.50;49.35
53900;BME280;40509;32.858;-116.858;2023-05-01T08:45:47;97620.59;;;21.54;49.12
53900;BME280;40509;32.858;-116.858;2023-05-01T08:48:16;97615.97;;;21.48;49.32
53900;BME280;40509;32.858;-116.858;2023-05-01T08:50:46;97614.81;;;21.50;49.38
53900;BME280;40509;32.858;-116.858;2023-05-01T08:53:15;97613.72;;;21.53;49.41
53900;BME280;40509;32.858;-116.858;2023-05-01T08:55:46;97611.34;;;21.50;49.35
53900;BME280;40509;32.858;-116.858;2023-05-01T08:58:17;97600.84;;;21.50;49.34
53900;BME280;40509;32.858;-116.858;2023-05-01T09:00:45;97600.38;;;21.46;49.27
53900;BME280;40509;32.858;-116.858;2023-05-01T09:03:13;97596.09;;;21.45;49.44
53900;BME280;40509;32.858;-116.858;2023-05-01T09:05:41;97595.75;;;21.48;49.44
53900;BME280;40509;32.858;-116.858;2023-05-01T09:08:08;97588.22;;;21.45;49.42
53900;BME280;40509;32.858;-116.858;2023-05-01T09:10:41;97598.19;;;21.42;49.36
53900;BME280;40509;32.858;-116.858;2023-05-01T09:13:10;97583.13;;;21.44;49.32
53900;BME280;40509;32.858;-116.858;2023-05-01T09:15:38;97585.41;;;21.47;49.22
53900;BME280;40509;32.858;-116.858;2023-05-01T09:18:07;97593.09;;;21.40;49.29
53900;BME280;40509;32.858;-116.858;2023-05-01T09:20:36;97593.28;;;21.38;49.42
53900;BME280;40509;32.858;-116.858;2023-05-01T09:23:03;97587.22;;;21.38;49.32
53900;BME280;40509;32.858;-116.858;2023-05-01T09:25:31;97576.38;;;21.41;49.38
53900;BME280;40509;32.858;-116.858;2023-05-01T09:27:59;97577.34;;;21.40;49.24
53900;BME280;40509;32.858;-116.858;2023-05-01T09:30:31;97574.38;;;21.35;49.33
53900;BME280;40509;32.858;-116.858;2023-05-01T09:35:51;97562.09;;;21.35;49.38
53900;BME280;40509;32.858;-116.858;2023-05-01T09:38:21;97566.34;;;21.36;49.36
53900;BME280;40509;32.858;-116.858;2023-05-01T09:40:49;97560.94;;;21.38;49.30
53900;BME280;40509;32.858;-116.858;2023-05-01T09:43:27;97567.19;;;21.37;49.38
53900;BME280;40509;32.858;-116.858;2023-05-01T09:46:02;97563.88;;;21.35;49.20
53900;BME280;40509;32.858;-116.858;2023-05-01T09:48:31;97564.72;;;21.35;49.19
53900;BME280;40509;32.858;-116.858;2023-05-01T09:51:00;97558.94;;;21.32;49.43
53900;BME280;40509;32.858;-116.858;2023-05-01T09:53:37;97561.56;;;21.32;49.35
53900;BME280;40509;32.858;-116.858;2023-05-01T09:56:05;97561.91;;;21.29;49.35
53900;BME280;40509;32.858;-116.858;2023-05-01T09:58:32;97568.63;;;21.31;49.53
53900;BME280;40509;32.858;-116.858;2023-05-01T10:01:00;97564.53;;;21.29;49.31
53900;BME280;40509;32.858;-116.858;2023-05-01T10:03:27;97562.53;;;21.31;49.30
53900;BME280;40509;32.858;-116.858;2023-05-01T10:05:54;97565.16;;;21.31;49.37
53900;BME280;40509;32.858;-116.858;2023-05-01T10:08:23;97557.63;;;21.28;49.37
53900;BME280;40509;32.858;-116.858;2023-05-01T10:11:02;97560.25;;;21.28;49.37
53900;BME280;40509;32.858;-116.858;2023-05-01T10:13:33;97552.69;;;21.25;49.38
53900;BME280;40509;32.858;-116.858;2023-05-01T10:16:00;97549.38;;;21.22;49.40
53900;BME280;40509;32.858;-116.858;2023-05-01T10:18:35;97549.09;;;21.26;49.24
53900;BME280;40509;32.858;-116.858;2023-05-01T10:21:03;97550.38;;;21.21;49.45
53900;BME280;40509;32.858;-116.858;2023-05-01T10:23:31;97550.06;;;21.25;49.11
53900;BME280;40509;32.858;-116.858;2023-05-01T10:26:00;97549.38;;;21.22;49.33
53900;BME280;40509;32.858;-116.858;2023-05-01T10:28:29;97548.59;;;21.22;49.17
53900;BME280;40509;32.858;-116.858;2023-05-01T10:30:56;97547.75;;;21.21;49.25
53900;BME280;40509;32.858;-116.858;2023-05-01T10:33:25;97544.13;;;21.22;49.18
53900;BME280;40509;32.858;-116.858;2023-05-01T10:35:56;97546.13;;;21.20;49.25
53900;BME280;40509;32.858;-116.858;2023-05-01T10:38:32;97540.19;;;21.18;49.06
53900;BME280;40509;32.858;-116.858;2023-05-01T10:41:01;97544.31;;;21.21;49.14
53900;BME280;40509;32.858;-116.858;2023-05-01T10:43:30;97539.22;;;21.19;49.23
53900;BME280;40509;32.858;-116.858;2023-05-01T10:51:13;97539.38;;;21.18;49.27
53900;BME280;40509;32.858;-116.858;2023-05-01T10:53:42;97544.78;;;21.16;49.10
53900;BME280;40509;32.858;-116.858;2023-05-01T11:09:40;97547.88;;;21.12;49.20
53900;BME280;40509;32.858;-116.858;2023-05-01T11:12:09;97550.34;;;21.13;49.28
53900;BME280;40509;32.858;-116.858;2023-05-01T11:20:09;97546.53;;;21.08;48.96
53900;BME280;40509;32.858;-116.858;2023-05-01T11:22:38;97546.69;;;21.06;49.10
53900;BME280;40509;32.858;-116.858;2023-05-01T11:27:52;97538.84;;;21.06;49.05
53900;BME280;40509;32.858;-116.858;2023-05-01T11:30:19;97544.25;;;21.04;49.17
53900;BME280;40509;32.858;-116.858;2023-05-01T11:32:48;97541.94;;;21.01;48.98
53900;BME280;40509;32.858;-116.858;2023-05-01T11:35:24;97534.72;;;21.03;49.05
53900;BME280;40509;32.858;-116.858;2023-05-01T11:37:55;97547.84;;;21.03;48.83
53900;BME280;40509;32.858;-116.858;2023-05-01T11:40:28;97552.44;;;21.01;48.98
53900;BME280;40509;32.858;-116.858;2023-05-01T11:43:06;97555.38;;;21.06;49.00
53900;BME280;40509;32.858;-116.858;2023-05-01T11:45:35;97552.28;;;21.03;48.85
53900;BME280;40509;32.858;-116.858;2023-05-01T11:48:03;97549.81;;;21.01;48.94
53900;BME280;40509;32.858;-116.858;2023-05-01T11:50:32;97549.97;;;21.00;49.27
53900;BME280;40509;32.858;-116.858;2023-05-01T11:53:01;97542.41;;;20.97;48.87
53900;BME280;40509;32.858;-116.858;2023-05-01T11:55:33;97544.72;;;21.00;48.92
53900;BME280;40509;32.858;-116.858;2023-05-01T11:58:01;97550.09;;;20.98;49.09
53900;BME280;40509;32.858;-116.858;2023-05-01T12:00:35;97538.00;;;20.97;48.87
53900;BME280;40509;32.858;-116.858;2023-05-01T12:03:13;97550.78;;;21.00;48.92
53900;BME280;40509;32.858;-116.858;2023-05-01T12:05:44;97546.66;;;20.98;48.88
53900;BME280;40509;32.858;-116.858;2023-05-01T12:10:48;97554.53;;;20.98;48.80
53900;BME280;40509;32.858;-116.858;2023-05-01T12:13:16;97553.06;;;20.95;48.83
53900;BME280;40509;32.858;-116.858;2023-05-01T12:15:51;97551.22;;;20.96;48.75
53900;BME280;40509;32.858;-116.858;2023-05-01T12:18:19;97551.06;;;20.89;49.11
53900;BME280;40509;32.858;-116.858;2023-05-01T12:20:51;97553.22;;;20.94;49.09
53900;BME280;40509;32.858;-116.858;2023-05-01T12:23:33;97550.91;;;20.91;48.84
53900;BME280;40509;32.858;-116.858;2023-05-01T12:26:01;97551.19;;;20.87;49.00
53900;BME280;40509;32.858;-116.858;2023-05-01T12:28:56;97553.81;;;20.87;48.98
53900;BME280;40509;32.858;-116.858;2023-05-01T12:31:24;97557.28;;;20.88;49.00
53900;BME280;40509;32.858;-116.858;2023-05-01T12:33:56;97552.84;;;20.88;48.96
53900;BME280;40509;32.858;-116.858;2023-05-01T12:36:24;97551.06;;;20.89;48.86
53900;BME280;40509;32.858;-116.858;2023-05-01T12:39:11;97544.00;;;20.89;48.93
53900;BME280;40509;32.858;-116.858;2023-05-01T12:41:48;97540.06;;;20.85;48.81
53900;BME280;40509;32.858;-116.858;2023-05-01T12:44:24;97544.00;;;20.89;49.18
53900;BME280;40509;32.858;-116.858;2023-05-01T12:47:11;97542.19;;;20.90;48.86
53900;BME280;40509;32.858;-116.858;2023-05-01T12:49:38;97542.69;;;20.85;49.03
53900;BME280;40509;32.858;-116.858;2023-05-01T12:52:07;97552.34;;;20.85;49.05
53900;BME280;40509;32.858;-116.858;2023-05-01T12:54:36;97542.63;;;20.77;48.87
53900;BME280;40509;32.858;-116.858;2023-05-01T12:57:15;97554.31;;;20.83;49.20
53900;BME280;40509;32.858;-116.858;2023-05-01T12:59:44;97552.84;;;20.88;49.11
53900;BME280;40509;32.858;-116.858;2023-05-01T13:02:15;97556.41;;;20.79;49.25
53900;BME280;40509;32.858;-116.858;2023-05-01T13:04:44;97561.50;;;20.81;49.31
53900;BME280;40509;32.858;-116.858;2023-05-01T13:07:17;97563.13;;;20.82;49.44
53900;BME280;40509;32.858;-116.858;2023-05-01T13:09:55;97554.25;;;20.75;49.22
53900;BME280;40509;32.858;-116.858;2023-05-01T13:12:25;97565.41;;;20.77;49.34
53900;BME280;40509;32.858;-116.858;2023-05-01T13:14:53;97569.69;;;20.78;49.19
53900;BME280;40509;32.858;-116.858;2023-05-01T13:19:59;97569.03;;;20.76;49.06
53900;BME280;40509;32.858;-116.858;2023-05-01T13:22:45;97569.03;;;20.76;49.02
53900;BME280;40509;32.858;-116.858;2023-05-01T13:25:17;97582.94;;;20.76;48.90
53900;BME280;40509;32.858;-116.858;2023-05-01T13:27:52;97584.44;;;20.79;48.92
53900;BME280;40509;32.858;-116.858;2023-05-01T13:30:30;97584.75;;;20.76;49.10
53900;BME280;40509;32.858;-116.858;2023-05-01T13:32:58;97590.97;;;20.75;48.82